Time;durP1;ratioP1;P1;durP2;ratioP2;P2;SDS_P1;SDS_P2;PMS_P1;PMS_P2;Temp;Humidity;BMP_temperature;BMP_pressure;BME280_temperature;BME280_humidity;BME280_pressure;Samples;Min_cycle;Max_cycle;Signal;HPM_P1;HPM_P2
2022/01/25 00:26:17;0.00;0.00;0.62;0.00;0.00;0.62;3.77;2.93;;;22.00;28.30;;;;;;2230128;62;20372;-61
2022/01/25 00:29:08;0.00;0.00;0.62;0.00;0.00;0.62;3.10;2.60;;;21.90;28.20;;;;;;2230223;62;20434;-61
2022/01/25 00:31:53;0.00;0.00;0.62;0.00;0.00;0.62;3.57;3.10;;;21.90;28.20;;;;;;2230094;62;20416;-61
2022/01/25 00:34:38;0.00;0.00;0.62;0.00;0.00;0.62;3.27;2.97;;;21.90;28.20;;;;;;2230244;62;20409;-61
2022/01/25 00:37:23;0.00;0.00;0.62;0.00;0.00;0.62;4.10;3.10;;;21.90;28.10;;;;;;2229789;62;20401;-60
2022/01/25 00:40:10;0.00;0.00;0.62;0.00;0.00;0.62;4.47;3.57;;;21.90;28.10;;;;;;2230207;62;20373;-61
2022/01/25 00:42:54;0.00;0.00;0.62;0.00;0.00;0.62;3.20;2.90;;;21.90;28.10;;;;;;2230357;62;20492;-61
2022/01/25 00:45:39;0.00;0.00;0.62;0.00;0.00;0.62;4.20;3.40;;;21.90;28.10;;;;;;2230291;62;20409;-61
2022/01/25 00:48:43;0.00;0.00;0.62;0.00;0.00;0.62;4.37;3.20;;;21.90;28.10;;;;;;2228165;62;20381;-61
2022/01/25 00:57:08;0.00;0.00;0.62;0.00;0.00;0.62;4.30;3.20;;;21.80;27.90;;;;;;2226610;62;20395;-61
2022/01/25 00:59:52;0.00;0.00;0.62;0.00;0.00;0.62;5.40;3.60;;;21.80;27.90;;;;;;2225794;62;20371;-61
2022/01/25 01:02:37;0.00;0.00;0.62;0.00;0.00;0.62;3.67;2.77;;;21.80;27.90;;;;;;2226102;62;20401;-60
2022/01/25 01:05:22;0.00;0.00;0.62;0.00;0.00;0.62;4.20;3.80;;;21.70;27.80;;;;;;2226527;62;20705;-61
2022/01/25 01:08:06;0.00;0.00;0.62;0.00;0.00;0.62;3.63;3.30;;;21.70;27.80;;;;;;2226249;62;20730;-61
2022/01/25 01:10:51;0.00;0.00;0.62;0.00;0.00;0.62;3.87;3.47;;;21.70;27.80;;;;;;2226237;62;20390;-61
2022/01/25 01:13:52;0.00;0.00;0.62;0.00;0.00;0.62;3.87;3.07;;;21.70;27.80;;;;;;2226057;62;20413;-61
2022/01/25 01:29:18;0.00;0.00;0.62;0.00;0.00;0.62;3.70;3.40;;;21.60;27.70;;;;;;2225881;62;20366;-61
2022/01/25 01:32:28;0.00;0.00;0.62;0.00;0.00;0.62;4.73;3.90;;;21.60;27.70;;;;;;2225986;62;20654;-61
2022/01/25 01:44:26;0.00;0.00;0.62;0.00;0.00;0.62;3.80;3.40;;;21.50;27.70;;;;;;2227181;62;20410;-61
2022/01/25 01:47:21;0.00;0.00;0.62;0.00;0.00;0.62;3.70;3.40;;;21.50;27.70;;;;;;2226271;62;20603;-61
2022/01/25 01:50:12;0.00;0.00;0.62;0.00;0.00;0.62;4.67;3.53;;;21.50;27.70;;;;;;2225724;62;20680;-61
2022/01/25 01:52:59;0.00;0.00;0.62;0.00;0.00;0.62;3.70;3.33;;;21.40;27.60;;;;;;2226000;62;20401;-61
2022/01/25 01:55:43;0.00;0.00;0.62;0.00;0.00;0.62;4.13;3.73;;;21.40;27.60;;;;;;2226163;62;20365;-61
2022/01/25 01:58:27;0.00;0.00;0.62;0.00;0.00;0.62;3.40;3.10;;;21.40;27.60;;;;;;2225757;62;20419;-61
2022/01/25 02:01:16;0.00;0.00;0.62;0.00;0.00;0.62;4.20;3.73;;;21.40;27.60;;;;;;2226139;62;20450;-61
2022/01/25 02:04:04;0.00;0.00;0.62;0.00;0.00;0.62;4.83;3.57;;;21.40;27.60;;;;;;2226300;62;20367;-61
2022/01/25 02:06:48;0.00;0.00;0.62;0.00;0.00;0.62;3.90;3.50;;;21.40;27.60;;;;;;2225718;62;20737;-61
2022/01/25 02:09:33;0.00;0.00;0.62;0.00;0.00;0.62;4.03;3.50;;;21.40;27.60;;;;;;2226176;62;20411;-61
2022/01/25 02:12:17;0.00;0.00;0.62;0.00;0.00;0.62;3.90;3.50;;;21.40;27.60;;;;;;2225376;62;20385;-61
2022/01/25 02:15:03;0.00;0.00;0.62;0.00;0.00;0.62;4.60;4.00;;;21.40;27.60;;;;;;2226029;62;20374;-61
2022/01/25 02:22:24;0.00;0.00;0.62;0.00;0.00;0.62;3.70;3.40;;;21.30;27.50;;;;;;2226208;62;20577;-61
2022/01/25 02:24:06;0.00;0.00;0.62;0.00;0.00;0.62;3.70;3.30;;;21.30;27.50;;;;;;2226088;62;20418;-61
2022/01/25 02:26:55;0.00;0.00;0.62;0.00;0.00;0.62;3.70;2.83;;;21.30;27.50;;;;;;2225697;62;20399;-61
2022/01/25 02:29:39;0.00;0.00;0.62;0.00;0.00;0.62;3.97;3.57;;;21.30;27.50;;;;;;2226076;62;20391;-61
2022/01/25 02:32:24;0.00;0.00;0.62;0.00;0.00;0.62;4.63;4.10;;;21.30;27.50;;;;;;2225906;62;20663;-61
2022/01/25 02:35:10;0.00;0.00;0.62;0.00;0.00;0.62;4.33;3.50;;;21.20;27.50;;;;;;2225498;62;20370;-60
2022/01/25 02:37:56;0.00;0.00;0.62;0.00;0.00;0.62;4.37;3.97;;;21.30;27.50;;;;;;2225778;62;20378;-60
2022/01/25 02:40:41;0.00;0.00;0.62;0.00;0.00;0.62;3.97;3.53;;;21.20;27.40;;;;;;2226236;62;20366;-61
2022/01/25 02:43:27;0.00;0.00;0.62;0.00;0.00;0.62;3.93;3.50;;;21.20;27.40;;;;;;2225300;62;20402;-61
2022/01/25 02:49:00;0.00;0.00;0.62;0.00;0.00;0.62;4.40;4.00;;;21.20;27.40;;;;;;2228737;62;20377;-61
2022/01/25 02:51:48;0.00;0.00;0.62;0.00;0.00;0.62;4.40;3.67;;;21.20;27.40;;;;;;2229575;62;20832;-61
2022/01/25 02:54:35;0.00;0.00;0.62;0.00;0.00;0.62;4.57;3.53;;;21.20;27.40;;;;;;2229870;62;20632;-61
2022/01/25 02:57:20;0.00;0.00;0.62;0.00;0.00;0.62;4.00;3.53;;;21.20;27.40;;;;;;2229511;62;20369;-61
2022/01/25 03:00:08;0.00;0.00;0.62;0.00;0.00;0.62;3.80;3.20;;;21.20;27.40;;;;;;2229792;62;20421;-61
2022/01/25 03:02:53;0.00;0.00;0.62;0.00;0.00;0.62;3.70;3.30;;;21.10;27.40;;;;;;2229919;62;20401;-61
2022/01/25 03:05:37;0.00;0.00;0.62;0.00;0.00;0.62;4.20;3.80;;;21.10;27.40;;;;;;2229320;62;20361;-61
2022/01/25 03:08:22;0.00;0.00;0.62;0.00;0.00;0.62;4.50;3.70;;;21.10;27.40;;;;;;2229827;62;20368;-61
2022/01/25 03:11:09;0.00;0.00;0.62;0.00;0.00;0.62;5.17;4.37;;;21.10;27.40;;;;;;2229526;62;20373;-60
2022/01/25 03:13:59;0.00;0.00;0.62;0.00;0.00;0.62;3.50;3.20;;;21.10;27.40;;;;;;2229662;62;20591;-61
2022/01/25 03:16:52;0.00;0.00;0.62;0.00;0.00;0.62;3.90;3.50;;;21.10;27.40;;;;;;2229761;62;20370;-60
2022/01/25 03:22:44;0.00;0.00;0.62;0.00;0.00;0.62;4.30;3.90;;;21.10;27.40;;;;;;2229897;62;20392;-59
2022/01/25 03:25:29;0.00;0.00;0.62;0.00;0.00;0.62;4.93;4.33;;;21.00;27.30;;;;;;2229907;62;20373;-60
2022/01/25 03:28:15;0.00;0.00;0.62;0.00;0.00;0.62;4.43;4.03;;;21.00;27.30;;;;;;2229316;62;20381;-61
2022/01/25 03:31:00;0.00;0.00;0.62;0.00;0.00;0.62;4.80;4.27;;;21.00;27.30;;;;;;2229637;62;20749;-61
2022/01/25 03:33:45;0.00;0.00;0.62;0.00;0.00;0.62;5.30;4.43;;;21.00;27.30;;;;;;2229381;62;20426;-60
2022/01/25 03:36:30;0.00;0.00;0.62;0.00;0.00;0.62;5.00;4.43;;;21.00;27.30;;;;;;2229728;62;20724;-61
2022/01/25 03:39:16;0.00;0.00;0.62;0.00;0.00;0.62;6.10;4.20;;;21.00;27.30;;;;;;2229705;62;20449;-61
2022/01/25 03:42:06;0.00;0.00;0.62;0.00;0.00;0.62;4.80;3.67;;;21.00;27.30;;;;;;2229151;62;20400;-60
2022/01/25 03:44:52;0.00;0.00;0.62;0.00;0.00;0.62;4.80;4.10;;;21.00;27.30;;;;;;2229975;62;20361;-61
2022/01/25 03:47:59;0.00;0.00;0.62;0.00;0.00;0.62;5.07;4.47;;;21.00;27.30;;;;;;2228579;62;20382;-61
2022/01/25 03:50:48;0.00;0.00;0.62;0.00;0.00;0.62;5.57;4.63;;;21.00;27.30;;;;;;2229581;62;20721;-61
2022/01/25 03:53:33;0.00;0.00;0.62;0.00;0.00;0.62;5.10;4.60;;;21.00;27.30;;;;;;2229735;62;20385;-61
2022/01/25 03:56:17;0.00;0.00;0.62;0.00;0.00;0.62;5.33;4.67;;;21.00;27.30;;;;;;2229083;62;20426;-61
2022/01/25 03:59:04;0.00;0.00;0.62;0.00;0.00;0.62;6.03;4.83;;;20.90;27.30;;;;;;2229776;62;20380;-61
2022/01/25 04:01:50;0.00;0.00;0.62;0.00;0.00;0.62;5.33;3.90;;;20.90;27.30;;;;;;2229451;62;20396;-60
2022/01/25 04:04:35;0.00;0.00;0.62;0.00;0.00;0.62;5.30;4.80;;;20.90;27.30;;;;;;2228969;62;20369;-61
2022/01/25 04:07:29;0.00;0.00;0.62;0.00;0.00;0.62;5.57;5.07;;;20.90;27.40;;;;;;2229683;62;20414;-61
2022/01/25 04:10:13;0.00;0.00;0.62;0.00;0.00;0.62;6.57;5.73;;;20.90;27.30;;;;;;2229710;62;20445;-60
2022/01/25 04:12:59;0.00;0.00;0.62;0.00;0.00;0.62;6.20;5.47;;;20.90;27.40;;;;;;2229343;62;20713;-61
2022/01/25 04:15:45;0.00;0.00;0.62;0.00;0.00;0.62;6.00;5.40;;;20.90;27.40;;;;;;2229560;62;20422;-60
2022/01/25 04:18:36;0.00;0.00;0.62;0.00;0.00;0.62;7.00;6.30;;;20.80;27.30;;;;;;2229225;62;20393;-61
2022/01/25 04:27:26;0.00;0.00;0.62;0.00;0.00;0.62;7.70;6.30;;;20.90;27.30;;;;;;2229215;62;20361;-60
2022/01/25 04:30:11;0.00;0.00;0.62;0.00;0.00;0.62;7.63;6.50;;;20.80;27.20;;;;;;2229591;62;20489;-60
2022/01/25 04:35:56;0.00;0.00;0.62;0.00;0.00;0.62;9.20;7.50;;;20.80;27.20;;;;;;2229443;62;20364;-60
2022/01/25 04:51:16;0.00;0.00;0.62;0.00;0.00;0.62;8.00;6.87;;;20.80;27.40;;;;;;2225492;62;20370;-60
2022/01/25 04:54:09;0.00;0.00;0.62;0.00;0.00;0.62;10.67;8.10;;;20.70;27.40;;;;;;2225790;62;20370;-61
2022/01/25 05:00:01;0.00;0.00;0.62;0.00;0.00;0.62;9.30;8.07;;;20.70;27.30;;;;;;2225677;62;20387;-58
2022/01/25 05:02:55;0.00;0.00;0.62;0.00;0.00;0.62;8.73;7.83;;;20.70;27.30;;;;;;2225095;62;20398;-60
2022/01/25 05:06:05;0.00;0.00;0.62;0.00;0.00;0.62;9.13;7.80;;;20.70;27.30;;;;;;2225685;62;20362;-61
2022/01/25 05:08:52;0.00;0.00;0.62;0.00;0.00;0.62;8.03;7.03;;;20.70;27.30;;;;;;2226221;62;20437;-60
2022/01/25 05:11:43;0.00;0.00;0.62;0.00;0.00;0.62;9.47;7.57;;;20.70;27.20;;;;;;2225604;62;20392;-59
2022/01/25 05:14:33;0.00;0.00;0.62;0.00;0.00;0.62;6.80;6.20;;;20.60;27.20;;;;;;2225895;62;20370;-60
2022/01/25 05:17:29;0.00;0.00;0.62;0.00;0.00;0.62;8.30;7.50;;;20.60;27.20;;;;;;2225983;62;20391;-61
2022/01/25 05:23:17;0.00;0.00;0.62;0.00;0.00;0.62;9.03;8.13;;;20.60;27.30;;;;;;2226520;62;20409;-57
2022/01/25 05:26:02;0.00;0.00;0.62;0.00;0.00;0.62;9.10;8.20;;;20.60;27.30;;;;;;2225514;62;20725;-60
2022/01/25 05:28:47;0.00;0.00;0.62;0.00;0.00;0.62;8.47;7.60;;;20.60;27.30;;;;;;2226277;62;20734;-59
2022/01/25 05:31:32;0.00;0.00;0.62;0.00;0.00;0.62;8.53;7.43;;;20.60;27.30;;;;;;2226197;62;20459;-59
2022/01/25 05:34:16;0.00;0.00;0.62;0.00;0.00;0.62;8.97;8.07;;;20.60;27.30;;;;;;2225960;62;20427;-58
2022/01/25 05:37:03;0.00;0.00;0.62;0.00;0.00;0.62;9.17;8.27;;;20.60;27.30;;;;;;2226288;62;20411;-59
2022/01/25 05:39:49;0.00;0.00;0.62;0.00;0.00;0.62;8.17;7.37;;;20.60;27.30;;;;;;2225757;62;20373;-60
2022/01/25 05:45:38;0.00;0.00;0.62;0.00;0.00;0.62;7.10;6.40;;;20.60;27.30;;;;;;2226382;62;20367;-58
2022/01/25 05:48:22;0.00;0.00;0.62;0.00;0.00;0.62;9.80;8.53;;;20.60;27.30;;;;;;2227438;62;20381;-60
2022/01/25 05:51:07;0.00;0.00;0.62;0.00;0.00;0.62;8.90;8.00;;;20.60;27.20;;;;;;2229864;62;20413;-58
2022/01/25 05:53:52;0.00;0.00;0.62;0.00;0.00;0.62;8.00;7.20;;;20.60;27.10;;;;;;2230057;62;20365;-60
2022/01/25 05:56:36;0.00;0.00;0.62;0.00;0.00;0.62;8.03;7.23;;;20.60;27.10;;;;;;2229884;62;20410;-59
2022/01/25 05:59:22;0.00;0.00;0.62;0.00;0.00;0.62;9.50;7.90;;;20.60;27.00;;;;;;2230019;62;20437;-61
2022/01/25 06:02:07;0.00;0.00;0.62;0.00;0.00;0.62;11.17;8.20;;;20.60;27.00;;;;;;2229291;62;20889;-57
2022/01/25 06:04:52;0.00;0.00;0.62;0.00;0.00;0.62;7.47;6.77;;;20.60;27.00;;;;;;2230060;62;20417;-60
2022/01/25 06:07:37;0.00;0.00;0.62;0.00;0.00;0.62;8.10;7.30;;;20.60;27.00;;;;;;2229970;62;20402;-58
2022/01/25 06:10:22;0.00;0.00;0.62;0.00;0.00;0.62;7.30;5.97;;;20.60;27.00;;;;;;2229316;62;20397;-60
2022/01/25 06:13:07;0.00;0.00;0.62;0.00;0.00;0.62;6.20;5.60;;;20.60;27.10;;;;;;2229880;62;20469;-60
2022/01/25 06:15:52;0.00;0.00;0.62;0.00;0.00;0.62;6.10;5.50;;;20.60;27.20;;;;;;2229897;62;20373;-59
2022/01/25 06:18:37;0.00;0.00;0.62;0.00;0.00;0.62;6.20;5.63;;;20.60;27.30;;;;;;2229699;62;20361;-61
2022/01/25 06:21:22;0.00;0.00;0.62;0.00;0.00;0.62;5.87;5.37;;;20.60;27.40;;;;;;2229844;62;20369;-59
2022/01/25 06:24:06;0.00;0.00;0.62;0.00;0.00;0.62;4.50;4.10;;;20.60;27.40;;;;;;2229425;62;20426;-59
2022/01/25 06:26:51;0.00;0.00;0.62;0.00;0.00;0.62;5.07;4.10;;;20.60;27.40;;;;;;2229927;62;20728;-59
2022/01/25 06:29:35;0.00;0.00;0.62;0.00;0.00;0.62;4.27;3.87;;;20.60;27.40;;;;;;2229949;62;20516;-61
2022/01/25 06:32:21;0.00;0.00;0.62;0.00;0.00;0.62;5.40;4.47;;;20.60;27.40;;;;;;2229194;62;20389;-62
2022/01/25 06:35:07;0.00;0.00;0.62;0.00;0.00;0.62;4.20;3.80;;;20.60;27.50;;;;;;2229959;62;20590;-60
2022/01/25 06:37:52;0.00;0.00;0.62;0.00;0.00;0.62;4.57;4.00;;;20.60;27.40;;;;;;2229850;62;20381;-59
2022/01/25 06:40:36;0.00;0.00;0.62;0.00;0.00;0.62;4.37;3.77;;;20.60;27.50;;;;;;2229415;62;20357;-61
2022/01/25 06:43:21;0.00;0.00;0.62;0.00;0.00;0.62;4.10;3.70;;;20.60;27.50;;;;;;2229842;62;20449;-60
2022/01/25 06:46:06;0.00;0.00;0.62;0.00;0.00;0.62;3.90;3.03;;;20.60;27.50;;;;;;2229582;62;20364;-59
2022/01/25 06:48:52;0.00;0.00;0.62;0.00;0.00;0.62;4.33;3.70;;;20.60;27.50;;;;;;2227192;62;20430;-60
2022/01/25 06:51:36;0.00;0.00;0.62;0.00;0.00;0.62;3.77;3.20;;;20.60;27.50;;;;;;2225266;62;20738;-60
2022/01/25 06:54:21;0.00;0.00;0.62;0.00;0.00;0.62;4.03;3.60;;;20.60;27.50;;;;;;2225677;62;20392;-61
2022/01/25 06:57:06;0.00;0.00;0.62;0.00;0.00;0.62;3.83;3.23;;;20.60;27.50;;;;;;2226396;62;20384;-62
2022/01/25 06:59:50;0.00;0.00;0.62;0.00;0.00;0.62;3.83;3.40;;;20.60;27.50;;;;;;2225965;62;20449;-60
2022/01/25 07:02:35;0.00;0.00;0.62;0.00;0.00;0.62;4.03;3.10;;;20.60;27.50;;;;;;2225260;62;20401;-60
2022/01/25 07:05:21;0.00;0.00;0.62;0.00;0.00;0.62;3.70;3.30;;;20.60;27.50;;;;;;2225806;62;20366;-60
2022/01/25 07:08:06;0.00;0.00;0.62;0.00;0.00;0.62;3.20;2.90;;;20.60;27.50;;;;;;2225569;62;20374;-62
2022/01/25 07:10:50;0.00;0.00;0.62;0.00;0.00;0.62;3.13;2.80;;;20.60;27.60;;;;;;2225740;62;20406;-60
2022/01/25 07:13:35;0.00;0.00;0.62;0.00;0.00;0.62;2.73;2.37;;;20.70;27.60;;;;;;2225774;62;20390;-60
2022/01/25 07:16:20;0.00;0.00;0.62;0.00;0.00;0.62;3.70;3.30;;;20.70;27.60;;;;;;2225075;62;20361;-59
2022/01/25 07:19:04;0.00;0.00;0.62;0.00;0.00;0.62;3.10;2.70;;;20.60;27.60;;;;;;2225745;62;20596;-60
2022/01/25 07:21:50;0.00;0.00;0.62;0.00;0.00;0.62;3.63;2.87;;;20.70;27.70;;;;;;2225935;62;20467;-61
2022/01/25 07:24:35;0.00;0.00;0.62;0.00;0.00;0.62;3.03;2.73;;;20.70;27.60;;;;;;2225381;62;20434;-60
2022/01/25 07:27:19;0.00;0.00;0.62;0.00;0.00;0.62;3.03;2.73;;;20.70;27.70;;;;;;2225798;62;20388;-59
2022/01/25 07:30:06;0.00;0.00;0.62;0.00;0.00;0.62;2.60;2.40;;;20.70;27.60;;;;;;2225911;62;20446;-62
2022/01/25 07:32:50;0.00;0.00;0.62;0.00;0.00;0.62;3.30;2.70;;;20.70;27.60;;;;;;2225561;62;20381;-59
2022/01/25 07:35:36;0.00;0.00;0.62;0.00;0.00;0.62;3.10;2.80;;;20.70;27.60;;;;;;2225814;62;20370;-59
2022/01/25 07:38:22;0.00;0.00;0.62;0.00;0.00;0.62;2.40;2.20;;;20.70;27.60;;;;;;2225685;62;20366;-58
2022/01/25 07:41:07;0.00;0.00;0.62;0.00;0.00;0.62;2.83;2.40;;;20.70;27.60;;;;;;2226059;62;20370;-57
2022/01/25 07:43:52;0.00;0.00;0.62;0.00;0.00;0.62;3.23;2.93;;;20.70;27.60;;;;;;2225996;62;20434;-60
2022/01/25 07:46:36;0.00;0.00;0.62;0.00;0.00;0.62;3.00;2.70;;;20.70;27.60;;;;;;2225326;62;20728;-57
2022/01/25 07:49:21;0.00;0.00;0.62;0.00;0.00;0.62;2.90;2.60;;;20.80;27.70;;;;;;2226677;62;20370;-58
2022/01/25 07:52:07;0.00;0.00;0.62;0.00;0.00;0.62;3.17;2.87;;;20.70;27.60;;;;;;2225879;62;20742;-60
2022/01/25 07:54:53;0.00;0.00;0.62;0.00;0.00;0.62;3.00;2.70;;;20.80;27.70;;;;;;2225520;62;20397;-61
2022/01/25 07:57:38;0.00;0.00;0.62;0.00;0.00;0.62;2.73;2.37;;;20.80;27.70;;;;;;2225858;62;20738;-60
2022/01/25 08:00:22;0.00;0.00;0.62;0.00;0.00;0.62;3.00;2.70;;;20.80;27.70;;;;;;2225467;62;20422;-60
2022/01/25 08:03:07;0.00;0.00;0.62;0.00;0.00;0.62;2.80;2.50;;;20.80;27.70;;;;;;2225572;62;20433;-60
2022/01/25 08:05:51;0.00;0.00;0.62;0.00;0.00;0.62;2.50;2.20;;;20.80;27.70;;;;;;2225907;62;20454;-61
2022/01/25 08:08:36;0.00;0.00;0.62;0.00;0.00;0.62;2.53;2.30;;;20.80;27.60;;;;;;2225250;62;20398;-61
2022/01/25 08:11:22;0.00;0.00;0.62;0.00;0.00;0.62;2.67;2.43;;;20.80;27.70;;;;;;2225469;62;20438;-59
2022/01/25 08:14:14;0.00;0.00;0.62;0.00;0.00;0.62;2.90;2.60;;;20.80;27.70;;;;;;2225932;62;20370;-59
2022/01/25 08:16:59;0.00;0.00;0.62;0.00;0.00;0.62;2.30;2.10;;;20.80;27.60;;;;;;2225347;62;20399;-61
2022/01/25 08:19:44;0.00;0.00;0.62;0.00;0.00;0.62;2.37;2.17;;;20.80;27.60;;;;;;2225811;62;20412;-60
2022/01/25 08:22:28;0.00;0.00;0.62;0.00;0.00;0.62;2.60;2.40;;;20.80;27.60;;;;;;2225180;62;20434;-61
2022/01/25 08:25:13;0.00;0.00;0.62;0.00;0.00;0.62;2.90;2.60;;;20.80;27.60;;;;;;2225451;62;20682;-58
2022/01/25 08:27:59;0.00;0.00;0.62;0.00;0.00;0.62;2.70;2.20;;;20.80;27.60;;;;;;2225870;62;20411;-58
2022/01/25 08:30:44;0.00;0.00;0.62;0.00;0.00;0.62;2.50;2.30;;;20.80;27.70;;;;;;2224858;62;20449;-58
2022/01/25 08:33:29;0.00;0.00;0.62;0.00;0.00;0.62;2.03;1.80;;;20.80;27.70;;;;;;2225724;62;20462;-59
2022/01/25 08:36:14;0.00;0.00;0.62;0.00;0.00;0.62;2.70;2.43;;;20.80;27.60;;;;;;2225850;62;20373;-58
2022/01/25 08:38:59;0.00;0.00;0.62;0.00;0.00;0.62;2.43;2.23;;;20.80;27.60;;;;;;2225016;62;20442;-60
2022/01/25 08:41:44;0.00;0.00;0.62;0.00;0.00;0.62;2.70;2.17;;;20.80;27.60;;;;;;2225428;62;20725;-62
2022/01/25 08:44:31;0.00;0.00;0.62;0.00;0.00;0.62;2.20;2.00;;;20.80;27.60;;;;;;2225890;62;20439;-60
2022/01/25 08:47:16;0.00;0.00;0.62;0.00;0.00;0.62;2.33;1.83;;;20.90;27.70;;;;;;2226564;62;20366;-60
2022/01/25 08:50:00;0.00;0.00;0.62;0.00;0.00;0.62;2.50;2.23;;;20.90;27.70;;;;;;2230044;62;20377;-58
2022/01/25 08:52:44;0.00;0.00;0.62;0.00;0.00;0.62;2.50;2.10;;;20.90;27.70;;;;;;2229525;62;20425;-62
2022/01/25 08:55:29;0.00;0.00;0.62;0.00;0.00;0.62;2.10;1.80;;;20.90;27.70;;;;;;2230599;62;20364;-59
2022/01/25 08:58:13;0.00;0.00;0.62;0.00;0.00;0.62;2.63;2.20;;;20.90;27.70;;;;;;2230277;62;20372;-62
2022/01/25 09:01:00;0.00;0.00;0.62;0.00;0.00;0.62;2.30;1.93;;;20.90;27.70;;;;;;2229469;62;20559;-62
2022/01/25 09:03:44;0.00;0.00;0.62;0.00;0.00;0.62;3.00;2.70;;;20.90;27.70;;;;;;2230251;62;20477;-62
2022/01/25 09:06:29;0.00;0.00;0.62;0.00;0.00;0.62;3.03;2.47;;;20.90;27.70;;;;;;2229688;62;20360;-61
2022/01/25 09:09:14;0.00;0.00;0.62;0.00;0.00;0.62;2.30;2.03;;;20.90;27.70;;;;;;2230281;62;20383;-62
2022/01/25 09:11:59;0.00;0.00;0.62;0.00;0.00;0.62;1.90;1.70;;;20.90;27.70;;;;;;2229965;62;20619;-60
2022/01/25 09:14:44;0.00;0.00;0.62;0.00;0.00;0.62;2.47;2.27;;;20.90;27.70;;;;;;2229835;62;20498;-61
2022/01/25 09:17:30;0.00;0.00;0.62;0.00;0.00;0.62;2.40;2.00;;;20.90;27.70;;;;;;2230197;62;20369;-57
2022/01/25 09:20:15;0.00;0.00;0.62;0.00;0.00;0.62;2.30;2.10;;;20.90;27.70;;;;;;2230306;62;20595;-59
2022/01/25 09:22:59;0.00;0.00;0.62;0.00;0.00;0.62;2.60;2.10;;;20.90;27.70;;;;;;2229555;62;20412;-59
2022/01/25 09:25:44;0.00;0.00;0.62;0.00;0.00;0.62;2.23;2.03;;;20.90;27.70;;;;;;2230398;62;20770;-59
2022/01/25 09:28:29;0.00;0.00;0.62;0.00;0.00;0.62;2.60;2.30;;;20.90;28.20;;;;;;2230036;62;20361;-61
2022/01/25 09:31:14;0.00;0.00;0.62;0.00;0.00;0.62;2.10;1.90;;;20.90;27.70;;;;;;2229939;62;20373;-60
2022/01/25 09:34:00;0.00;0.00;0.62;0.00;0.00;0.62;2.40;1.93;;;20.90;27.70;;;;;;2230074;62;20365;-61
2022/01/25 09:36:45;0.00;0.00;0.62;0.00;0.00;0.62;2.20;2.00;;;20.90;27.60;;;;;;2229666;62;20453;-61
2022/01/25 09:39:30;0.00;0.00;0.62;0.00;0.00;0.62;1.83;1.60;;;20.90;27.60;;;;;;2230325;62;20625;-57
2022/01/25 09:42:15;0.00;0.00;0.62;0.00;0.00;0.62;2.10;1.90;;;21.00;27.70;;;;;;2229932;62;20396;-61
2022/01/25 09:45:00;0.00;0.00;0.62;0.00;0.00;0.62;2.47;1.97;;;21.00;27.70;;;;;;2229580;62;20369;-60
2022/01/25 09:47:44;0.00;0.00;0.62;0.00;0.00;0.62;2.17;1.83;;;20.90;27.60;;;;;;2229923;62;20365;-61
2022/01/25 09:50:31;0.00;0.00;0.62;0.00;0.00;0.62;2.57;2.20;;;20.90;27.60;;;;;;2454505;54;20354;-59
2022/01/25 09:53:16;0.00;0.00;0.62;0.00;0.00;0.62;3.10;2.80;;;21.00;27.70;;;;;;2226022;62;20390;-60
2022/01/25 09:56:01;0.00;0.00;0.62;0.00;0.00;0.62;2.03;1.83;;;20.90;27.60;;;;;;2225967;62;20450;-61
2022/01/25 09:58:45;0.00;0.00;0.62;0.00;0.00;0.62;2.20;2.00;;;21.00;27.70;;;;;;2225719;62;20730;-60
2022/01/25 10:01:31;0.00;0.00;0.62;0.00;0.00;0.62;2.70;1.97;;;21.00;27.70;;;;;;2225968;62;20378;-62
2022/01/25 10:04:30;0.00;0.00;0.62;0.00;0.00;0.62;2.30;1.90;;;20.90;27.60;;;;;;2226104;62;20501;-62
2022/01/25 10:07:27;0.00;0.00;0.62;0.00;0.00;0.62;2.53;2.33;;;21.00;27.70;;;;;;2225493;62;20362;-60
2022/01/25 10:10:12;0.00;0.00;0.62;0.00;0.00;0.62;3.80;2.80;;;21.00;27.70;;;;;;2226084;62;20410;-61
2022/01/25 10:13:09;0.00;0.00;0.62;0.00;0.00;0.62;3.00;2.23;;;21.00;27.70;;;;;;2226073;62;20753;-61
2022/01/25 10:16:00;0.00;0.00;0.62;0.00;0.00;0.62;2.00;1.60;;;21.00;27.70;;;;;;2225987;62;20374;-59
2022/01/25 10:18:48;0.00;0.00;0.62;0.00;0.00;0.62;2.57;2.20;;;21.00;27.70;;;;;;2225977;62;20396;-61
2022/01/25 10:21:36;0.00;0.00;0.62;0.00;0.00;0.62;3.70;2.17;;;21.00;27.70;;;;;;2225664;62;20589;-61
2022/01/25 10:24:24;0.00;0.00;0.62;0.00;0.00;0.62;2.13;1.93;;;21.00;27.70;;;;;;2226380;62;20358;-61
2022/01/25 10:27:09;0.00;0.00;0.62;0.00;0.00;0.62;1.80;1.57;;;21.00;27.70;;;;;;2226311;62;20526;-60
2022/01/25 10:30:06;0.00;0.00;0.62;0.00;0.00;0.62;1.97;1.60;;;21.00;27.70;;;;;;2225598;62;20429;-59
2022/01/25 10:32:52;0.00;0.00;0.62;0.00;0.00;0.62;2.50;2.20;;;21.00;27.70;;;;;;2225793;62;20769;-62
2022/01/25 10:35:38;0.00;0.00;0.62;0.00;0.00;0.62;2.23;2.03;;;21.00;27.70;;;;;;2225707;62;20358;-59
2022/01/25 10:38:28;0.00;0.00;0.62;0.00;0.00;0.62;1.90;1.60;;;21.00;27.70;;;;;;2225727;62;20437;-59
2022/01/25 10:41:17;0.00;0.00;0.62;0.00;0.00;0.62;2.70;1.93;;;21.00;27.70;;;;;;2226173;62;20367;-61
2022/01/25 10:44:02;0.00;0.00;0.62;0.00;0.00;0.62;3.03;2.47;;;21.00;27.70;;;;;;2225361;62;20443;-59
2022/01/25 10:46:47;0.00;0.00;0.62;0.00;0.00;0.62;2.43;2.13;;;21.00;27.70;;;;;;2225907;62;20366;-58
2022/01/25 10:49:43;0.00;0.00;0.62;0.00;0.00;0.62;2.00;1.80;;;21.00;27.70;;;;;;2266038;54;20772;-60
2022/01/25 10:52:29;0.00;0.00;0.62;0.00;0.00;0.62;1.90;1.70;;;21.00;27.70;;;;;;2225609;62;20405;-62
2022/01/25 10:55:16;0.00;0.00;0.62;0.00;0.00;0.62;2.07;1.60;;;21.00;27.70;;;;;;2226111;62;20374;-61
2022/01/25 10:58:03;0.00;0.00;0.62;0.00;0.00;0.62;2.27;1.97;;;21.00;27.70;;;;;;2225666;62;20362;-59
2022/01/25 11:00:51;0.00;0.00;0.62;0.00;0.00;0.62;2.43;1.60;;;21.00;27.70;;;;;;2225723;62;20459;-60
2022/01/25 11:03:38;0.00;0.00;0.62;0.00;0.00;0.62;2.10;1.70;;;21.00;27.70;;;;;;2226083;62;20390;-62
2022/01/25 11:06:27;0.00;0.00;0.62;0.00;0.00;0.62;2.10;1.70;;;21.00;27.70;;;;;;2225077;62;20586;-58
2022/01/25 11:09:13;0.00;0.00;0.62;0.00;0.00;0.62;2.70;2.23;;;21.00;27.70;;;;;;2226250;62;20719;-62
2022/01/25 11:11:57;0.00;0.00;0.62;0.00;0.00;0.62;2.00;1.80;;;21.00;27.70;;;;;;2225858;62;20609;-60
2022/01/25 11:14:50;0.00;0.00;0.62;0.00;0.00;0.62;1.87;1.53;;;21.00;27.70;;;;;;2225821;62;20634;-60
2022/01/25 11:17:35;0.00;0.00;0.62;0.00;0.00;0.62;2.10;1.80;;;21.10;27.80;;;;;;2226076;62;20382;-62
2022/01/25 11:20:19;0.00;0.00;0.62;0.00;0.00;0.62;2.23;2.00;;;21.00;27.70;;;;;;2225439;62;20703;-62
2022/01/25 11:23:05;0.00;0.00;0.62;0.00;0.00;0.62;1.70;1.43;;;21.00;27.70;;;;;;2225993;62;20406;-60
2022/01/25 11:25:49;0.00;0.00;0.62;0.00;0.00;0.62;1.90;1.70;;;21.00;27.70;;;;;;2226000;62;20361;-62
2022/01/25 11:28:37;0.00;0.00;0.62;0.00;0.00;0.62;1.93;1.70;;;21.00;27.70;;;;;;2225137;62;20375;-60
2022/01/25 11:31:25;0.00;0.00;0.62;0.00;0.00;0.62;2.47;1.80;;;21.10;27.70;;;;;;2225742;62;20422;-61
2022/01/25 11:34:13;0.00;0.00;0.62;0.00;0.00;0.62;2.33;2.13;;;21.00;27.70;;;;;;2226188;62;20813;-60
2022/01/25 11:37:07;0.00;0.00;0.62;0.00;0.00;0.62;2.27;1.70;;;21.00;27.70;;;;;;2225711;62;20690;-57
2022/01/25 11:39:52;0.00;0.00;0.62;0.00;0.00;0.62;2.43;1.80;;;21.10;27.70;;;;;;2225871;62;20811;-61
2022/01/25 11:42:46;0.00;0.00;0.62;0.00;0.00;0.62;2.07;1.50;;;21.10;27.70;;;;;;2225204;62;20419;-61
2022/01/25 11:45:33;0.00;0.00;0.62;0.00;0.00;0.62;2.57;2.17;;;21.10;27.70;;;;;;2226036;62;20464;-61
2022/01/25 11:48:22;0.00;0.00;0.62;0.00;0.00;0.62;2.77;2.20;;;21.10;27.70;;;;;;2227874;62;20401;-61
2022/01/25 11:51:17;0.00;0.00;0.62;0.00;0.00;0.62;1.80;1.50;;;21.10;27.70;;;;;;2228940;62;20429;-61
2022/01/25 11:54:04;0.00;0.00;0.62;0.00;0.00;0.62;1.90;1.70;;;21.10;27.70;;;;;;2229732;62;20452;-60
2022/01/25 11:56:48;0.00;0.00;0.62;0.00;0.00;0.62;2.00;1.50;;;21.10;27.70;;;;;;2229174;62;20373;-62
2022/01/25 11:59:34;0.00;0.00;0.62;0.00;0.00;0.62;2.10;1.70;;;21.10;27.70;;;;;;2229693;62;20377;-61
2022/01/25 12:02:38;0.00;0.00;0.62;0.00;0.00;0.62;1.90;1.60;;;21.10;27.70;;;;;;2229375;62;20490;-60
2022/01/25 12:05:27;0.00;0.00;0.62;0.00;0.00;0.62;1.97;1.50;;;21.10;27.70;;;;;;2229317;62;20406;-60
2022/01/25 12:08:15;0.00;0.00;0.62;0.00;0.00;0.62;1.80;1.40;;;21.10;27.70;;;;;;2229726;62;20377;-61
2022/01/25 12:11:06;0.00;0.00;0.62;0.00;0.00;0.62;2.10;1.77;;;21.10;27.70;;;;;;2229533;62;20404;-62
2022/01/25 12:14:24;0.00;0.00;0.62;0.00;0.00;0.62;2.07;1.67;;;21.10;27.70;;;;;;2229515;62;20406;-61
2022/01/25 12:17:13;0.00;0.00;0.62;0.00;0.00;0.62;2.10;1.90;;;21.10;27.70;;;;;;2229617;62;20361;-60
2022/01/25 12:19:59;0.00;0.00;0.62;0.00;0.00;0.62;1.97;1.43;;;21.10;27.70;;;;;;2229276;62;20501;-61
2022/01/25 12:22:48;0.00;0.00;0.62;0.00;0.00;0.62;2.17;1.60;;;21.10;27.70;;;;;;2229711;62;20674;-60
2022/01/25 12:25:57;0.00;0.00;0.62;0.00;0.00;0.62;2.10;1.60;;;21.10;27.70;;;;;;2229733;62;20738;-60
2022/01/25 12:28:45;0.00;0.00;0.62;0.00;0.00;0.62;2.47;1.97;;;21.10;27.70;;;;;;2229541;62;20384;-60
2022/01/25 12:31:42;0.00;0.00;0.62;0.00;0.00;0.62;2.10;1.80;;;21.10;27.70;;;;;;2229404;62;20772;-61